createdAt,value
2023-03-19T00:04:11.325Z,10.65
2023-03-19T00:09:13.687Z,10.90
2023-03-19T00:14:14.446Z,9.38
2023-03-19T00:19:15.707Z,10.32
2023-03-19T00:24:17.780Z,10.75
2023-03-19T00:29:18.586Z,10.23
2023-03-19T00:34:21.648Z,11.43
2023-03-19T00:39:24.453Z,10.30
2023-03-19T00:44:25.507Z,9.88
2023-03-19T00:49:26.270Z,10.75
2023-03-19T00:54:28.480Z,11.02
2023-03-19T00:59:31.281Z,11.18
2023-03-19T01:04:32.002Z,10.93
2023-03-19T01:09:35.947Z,11.02
2023-03-19T01:14:36.671Z,10.75
2023-03-19T01:19:37.582Z,10.77
2023-03-19T01:24:39.666Z,10.70
2023-03-19T01:29:40.619Z,9.80
2023-03-19T01:34:58.362Z,11.20
2023-03-19T01:40:00.508Z,10.90
2023-03-19T01:45:03.521Z,11.57
2023-03-19T01:50:25.906Z,11.35
2023-03-19T01:55:43.159Z,11.30
2023-03-19T02:00:56.081Z,10.60
2023-03-19T02:05:58.659Z,11.18
2023-03-19T02:11:02.110Z,11.38
2023-03-19T02:16:04.674Z,10.20
2023-03-19T02:21:09.182Z,11.70
2023-03-19T02:26:13.680Z,11.80
2023-03-19T02:31:16.139Z,11.85
2023-03-19T02:36:20.462Z,11.60
2023-03-19T02:41:22.825Z,11.07
2023-03-19T02:46:23.665Z,11.55
2023-03-19T02:51:24.394Z,11.07
2023-03-19T02:56:26.622Z,11.82
2023-03-19T03:01:27.299Z,11.73
2023-03-19T03:06:28.124Z,11.35
2023-03-19T03:11:30.425Z,10.85
2023-03-19T03:16:31.263Z,10.52
2023-03-19T03:21:34.349Z,11.20
2023-03-19T03:26:38.864Z,11.48
2023-03-19T03:31:39.641Z,10.85
2023-03-19T03:36:40.421Z,10.77
2023-03-19T03:41:42.570Z,11.10
2023-03-19T03:46:44.569Z,10.80
2023-03-19T03:51:45.603Z,10.93
2023-03-19T03:56:47.778Z,10.60
2023-03-19T04:01:48.617Z,11.07
2023-03-19T04:06:49.578Z,11.18
2023-03-19T04:12:02.283Z,11.05
2023-03-19T04:17:03.070Z,10.45
2023-03-19T04:22:04.426Z,10.80
2023-03-19T04:27:08.431Z,10.02
2023-03-19T04:32:10.874Z,9.88
2023-03-19T04:37:12.523Z,10.60
2023-03-19T04:42:21.680Z,10.23
2023-03-19T04:47:28.634Z,10.68
2023-03-19T04:52:33.901Z,10.45
2023-03-19T04:57:37.991Z,9.13
2023-03-19T05:02:38.784Z,9.75
2023-03-19T05:07:39.479Z,10.02
2023-03-19T05:12:42.229Z,10.23
2023-03-19T05:17:44.142Z,10.13
2023-03-19T05:22:49.389Z,9.48
2023-03-19T05:27:53.102Z,10.23
2023-03-19T05:32:57.715Z,9.90
2023-03-19T05:38:08.284Z,10.10
2023-03-19T05:43:12.549Z,9.63
2023-03-19T05:48:13.824Z,9.70
2023-03-19T05:53:18.448Z,9.82
2023-03-19T05:58:32.240Z,10.13
2023-03-19T06:03:33.759Z,10.10
2023-03-19T06:08:39.475Z,10.30
2023-03-19T06:14:16.582Z,10.20
2023-03-19T06:19:27.899Z,9.75
2023-03-19T06:24:30.500Z,8.57
2023-03-19T06:29:32.686Z,9.73
2023-03-19T06:34:45.255Z,9.57
2023-03-19T06:39:46.314Z,9.88
2023-03-19T06:44:48.411Z,9.30
2023-03-19T06:49:49.118Z,8.30
2023-03-19T06:54:49.829Z,8.77
2023-03-19T06:59:51.883Z,10.15
2023-03-19T07:04:53.466Z,9.20
2023-03-19T07:09:54.362Z,8.30
2023-03-19T07:14:57.080Z,9.25
2023-03-19T07:19:57.766Z,9.60
2023-03-19T07:24:58.597Z,9.00
2023-03-19T07:30:00.758Z,8.40
2023-03-19T07:35:01.517Z,9.38
2023-03-19T07:40:02.423Z,9.68
2023-03-19T07:45:05.352Z,8.65
2023-03-19T07:50:07.323Z,8.38
2023-03-19T07:55:09.897Z,8.57
2023-03-19T08:00:13.072Z,9.40
2023-03-19T08:05:22.379Z,9.25
2023-03-19T08:10:23.100Z,8.63
2023-03-19T08:15:23.828Z,8.55
2023-03-19T08:20:25.903Z,8.48
2023-03-19T08:25:27.037Z,8.80
2023-03-19T08:30:27.813Z,8.18
2023-03-19T08:35:30.445Z,9.10
2023-03-19T08:40:31.285Z,8.90
2023-03-19T08:45:32.056Z,9.10
2023-03-19T08:50:34.390Z,8.32
2023-03-19T08:55:35.279Z,9.20
2023-03-19T09:00:37.080Z,8.60
2023-03-19T09:05:39.182Z,9.00
2023-03-19T09:10:40.631Z,8.00
2023-03-19T09:15:41.385Z,8.23
2023-03-19T09:20:43.584Z,9.05
2023-03-19T09:25:44.333Z,8.85
2023-03-19T09:30:47.012Z,8.50
2023-03-19T09:35:52.830Z,9.18
2023-03-19T09:41:07.912Z,9.23
2023-03-19T09:46:15.559Z,9.05
2023-03-19T09:51:21.162Z,9.35
2023-03-19T09:56:21.904Z,8.27
2023-03-19T10:01:27.569Z,8.70
2023-03-19T10:06:33.647Z,8.50
2023-03-19T10:11:44.529Z,8.57
2023-03-19T10:16:49.319Z,9.25
2023-03-19T10:21:57.352Z,8.48
2023-03-19T10:27:01.550Z,9.63
2023-03-19T10:32:12.085Z,9.13
2023-03-19T10:37:20.573Z,10.32
2023-03-19T10:42:40.889Z,9.75
2023-03-19T10:47:44.244Z,9.15
2023-03-19T10:52:51.606Z,9.40
2023-03-19T10:57:57.955Z,9.07
2023-03-19T11:02:59.248Z,9.65
2023-03-19T11:08:03.616Z,9.02
2023-03-19T11:13:06.942Z,9.43
2023-03-19T11:18:16.128Z,9.13
2023-03-19T11:23:18.860Z,9.90
2023-03-19T11:28:23.088Z,9.80
2023-03-19T11:33:43.684Z,10.10
2023-03-19T11:39:03.338Z,8.93
2023-03-19T11:44:08.274Z,9.48
2023-03-19T11:49:35.672Z,8.23
2023-03-19T11:54:48.786Z,9.30
2023-03-19T12:00:01.495Z,9.50
2023-03-19T12:05:15.967Z,8.60
2023-03-19T12:10:30.364Z,9.13
2023-03-19T12:15:39.507Z,9.48
2023-03-19T12:20:54.047Z,8.82
2023-03-19T12:26:06.101Z,9.10
2023-03-19T12:31:33.788Z,8.45
2023-03-19T12:36:40.852Z,8.77
2023-03-19T12:41:46.145Z,8.40
2023-03-19T12:46:54.162Z,8.70
2023-03-19T12:51:58.431Z,8.13
2023-03-19T12:57:04.549Z,9.13
2023-03-19T13:02:17.176Z,7.97
2023-03-19T13:07:23.616Z,8.75
2023-03-19T13:12:28.778Z,8.43
2023-03-19T13:17:38.327Z,8.27
2023-03-19T13:22:40.340Z,8.20
2023-03-19T13:27:42.405Z,8.68
2023-03-19T13:32:48.788Z,9.50
2023-03-19T13:37:58.951Z,8.85
2023-03-19T13:43:01.036Z,9.10
2023-03-19T13:48:25.664Z,8.68
2023-03-19T13:53:40.603Z,8.38
2023-03-19T13:58:52.958Z,7.97
2023-03-19T14:03:56.392Z,8.10
2023-03-19T14:08:57.246Z,9.23
2023-03-19T14:14:04.079Z,8.48
2023-03-19T14:19:12.528Z,8.57
2023-03-19T14:25:03.946Z,8.55
2023-03-19T14:30:00.688Z,7.72
2023-03-19T14:35:05.795Z,9.95
2023-03-19T14:40:13.028Z,8.98
2023-03-19T14:45:45.986Z,9.38
2023-03-19T14:51:18.984Z,9.13
2023-03-19T14:56:22.395Z,8.35
2023-03-19T15:01:27.125Z,9.13
2023-03-19T15:06:34.287Z,9.55
2023-03-19T15:12:21.255Z,9.02
2023-03-19T15:17:27.013Z,9.15
2023-03-19T15:22:31.349Z,9.18
2023-03-19T15:27:32.137Z,8.65
2023-03-19T15:32:52.234Z,8.30
2023-03-19T15:38:00.803Z,9.63
2023-03-19T15:43:03.626Z,8.50
2023-03-19T15:48:10.653Z,8.45
2023-03-19T15:53:16.643Z,9.55
2023-03-19T15:58:22.379Z,5.47
2023-03-19T16:03:38.939Z,2.47
2023-03-19T16:08:48.000Z,2.38
2023-03-19T16:13:58.040Z,2.63
2023-03-19T16:19:00.885Z,2.67
2023-03-19T16:24:04.521Z,2.30
2023-03-19T16:29:17.921Z,2.08
2023-03-19T16:34:38.278Z,2.28
2023-03-19T16:39:55.214Z,2.88
2023-03-19T16:44:56.396Z,2.42
2023-03-19T16:49:58.400Z,1.98
2023-03-19T16:55:00.148Z,1.85
2023-03-19T17:00:00.961Z,2.50
2023-03-19T17:05:03.422Z,2.25
2023-03-19T17:10:04.626Z,2.10
2023-03-19T17:15:06.989Z,2.20
2023-03-19T17:20:15.390Z,1.83
2023-03-19T17:25:19.168Z,1.80
2023-03-19T17:30:20.217Z,1.80
2023-03-19T17:35:23.537Z,2.40
2023-03-19T17:40:27.467Z,2.03
2023-03-19T17:45:30.185Z,1.90
2023-03-19T17:50:33.533Z,2.38
2023-03-19T17:55:34.401Z,2.00
2023-03-19T18:00:35.426Z,1.75
2023-03-19T18:05:37.734Z,1.60
2023-03-19T18:10:38.454Z,1.90
2023-03-19T18:15:41.088Z,1.80
2023-03-19T18:20:43.375Z,2.08
2023-03-19T18:25:44.968Z,2.35
2023-03-19T18:30:46.343Z,1.90
2023-03-19T18:35:48.887Z,2.08
2023-03-19T18:40:50.380Z,2.40
2023-03-19T18:45:54.693Z,2.28
2023-03-19T18:50:57.174Z,2.60
2023-03-19T18:55:58.368Z,2.95
2023-03-19T19:01:01.452Z,2.95
2023-03-19T19:06:03.947Z,2.83
2023-03-19T19:11:07.363Z,2.60
2023-03-19T19:16:11.523Z,2.83
2023-03-19T19:21:13.973Z,3.00
2023-03-19T19:26:21.874Z,3.40
2023-03-19T19:31:25.672Z,3.92
2023-03-19T19:36:28.844Z,3.38
2023-03-19T19:41:29.650Z,3.38
2023-03-19T19:46:32.553Z,3.75
2023-03-19T19:51:34.604Z,3.55
2023-03-19T19:56:35.490Z,3.70
2023-03-19T20:01:40.511Z,4.07
2023-03-19T20:06:42.727Z,3.90
2023-03-19T20:11:43.690Z,4.10
2023-03-19T20:16:44.432Z,3.33
2023-03-19T20:21:46.550Z,4.18
2023-03-19T20:26:47.308Z,4.28
2023-03-19T20:31:48.050Z,4.53
2023-03-19T20:36:50.227Z,4.15
2023-03-19T20:41:51.717Z,4.32
2023-03-19T20:46:52.600Z,5.00
2023-03-19T20:51:54.758Z,5.25
2023-03-19T20:56:56.122Z,5.60
2023-03-19T21:01:57.309Z,5.93
2023-03-19T21:06:59.413Z,6.07
2023-03-19T21:12:00.537Z,6.13
2023-03-19T21:17:01.250Z,7.32
2023-03-19T21:22:03.439Z,6.80
2023-03-19T21:27:04.245Z,7.18
2023-03-19T21:32:11.110Z,6.25
2023-03-19T21:37:13.462Z,6.70
2023-03-19T21:42:18.013Z,6.97
2023-03-19T21:47:21.398Z,7.45
2023-03-19T21:52:23.601Z,7.90
2023-03-19T21:57:24.607Z,8.07
2023-03-19T22:02:47.332Z,8.60
2023-03-19T22:07:49.739Z,8.32
2023-03-19T22:12:51.204Z,9.25
2023-03-19T22:17:52.019Z,8.70
2023-03-19T22:22:55.438Z,9.35
2023-03-19T22:27:56.858Z,10.15
2023-03-19T22:32:59.179Z,10.38
2023-03-19T22:38:01.299Z,10.32
2023-03-19T22:43:02.205Z,10.40
2023-03-19T22:48:03.664Z,10.38
2023-03-19T22:53:20.782Z,11.23
2023-03-19T22:58:21.535Z,10.93
2023-03-19T23:03:25.776Z,11.65
2023-03-19T23:08:28.261Z,11.30
2023-03-19T23:13:28.885Z,11.98
2023-03-19T23:18:31.433Z,12.43
2023-03-19T23:23:33.634Z,11.68
2023-03-19T23:28:35.992Z,13.50
2023-03-19T23:33:37.284Z,14.27
2023-03-19T23:38:39.290Z,13.57
2023-03-19T23:43:41.067Z,12.75
2023-03-19T23:48:42.156Z,13.40
2023-03-19T23:53:44.902Z,14.00
2023-03-19T23:58:47.110Z,14.15
